KAHN

Athens / Ben Epps Airport

Athens, Georgia, USA
METAR KAHN 211309Z 06004KT 3SM BR FEW018 21/21 A2993 RMK AO2 LTG DSNT E-SW T02060206
Observed Flight Rules
Jul-21 @ 13:09 UTC (45 minutes ago) Marginal Visual Flight Rules
Wind Visibility Clouds Conditions
60° at 4 knots 3 miles
  • Few at 1,800' AGL
  • Mist
Temperatures Readings
Current 21°C / 70°F
Dewpoint 21°C / 70°F
Humidity 100%
Altimeter 29.93" Hg
Pressure 1014 hPa
Elevation 244
METAR KAHN 211309Z 06004KT 3SM BR FEW018 21/21 A2993 RMK AO2 LTG DSNT E-SW T02060206
Observed Flight Rules
Jul-21 @ 13:09 UTC
(45 minutes ago)
MVFR
Wind Visibility
60° at 4 knots 3 miles
Clouds
  • Few at 1,800' AGL
Conditions
  • Mist
Temperature Dewpoint
21°C / 70°F 21°C / 70°F
Humidity Altimeter Pressure
100% 29.93" Hg 1014 hPa